createdAt,value
2023-01-13T00:01:29.297Z,100292.09
2023-01-13T00:03:57.303Z,100285.06
2023-01-13T00:06:26.148Z,100300.88
2023-01-13T00:08:54.611Z,100285.25
2023-01-13T00:11:23.134Z,100289.69
2023-01-13T00:13:50.719Z,100301.16
2023-01-13T00:16:19.872Z,100287.22
2023-01-13T00:18:49.206Z,100289.91
2023-01-13T00:21:24.852Z,100301.34
2023-01-13T00:23:55.097Z,100286.53
2023-01-13T00:26:27.895Z,100281.28
2023-01-13T00:28:58.988Z,100272.59
2023-01-13T00:31:29.482Z,100259.56
2023-01-13T00:33:59.850Z,100260.47
2023-01-13T00:36:28.356Z,100257.03
2023-01-13T00:38:55.976Z,100260.66
2023-01-13T00:41:26.037Z,100260.78
2023-01-13T00:43:53.509Z,100269.66
2023-01-13T00:46:23.002Z,100274.09
2023-01-13T00:48:51.557Z,100254.06
2023-01-13T00:51:21.741Z,100247.13
2023-01-13T00:53:51.625Z,100252.47
2023-01-13T00:56:38.960Z,100245.56
2023-01-13T00:59:11.812Z,100250.91
2023-01-13T01:01:41.016Z,100259.78
2023-01-13T01:04:08.783Z,100272.09
2023-01-13T01:06:36.689Z,100268.72
2023-01-13T01:09:05.537Z,100263.53
2023-01-13T01:11:34.200Z,100267.13
2023-01-13T01:14:04.144Z,100266.34
2023-01-13T01:16:33.638Z,100265.56
2023-01-13T01:19:02.044Z,100262.13
2023-01-13T01:21:29.773Z,100265.66
2023-01-13T01:24:01.217Z,100264.75
2023-01-13T01:26:30.758Z,100271.72
2023-01-13T01:28:59.322Z,100277.84
2023-01-13T01:31:31.573Z,100278.66
2023-01-13T01:34:01.361Z,100288.28
2023-01-13T01:36:34.915Z,100281.25
2023-01-13T01:39:04.079Z,100278.59
2023-01-13T01:41:35.165Z,100275.06
2023-01-13T01:44:28.488Z,100266.34
2023-01-13T01:46:57.494Z,100274.25
2023-01-13T01:49:36.817Z,100273.41
2023-01-13T01:52:11.780Z,100270.00
2023-01-13T01:54:59.329Z,100274.38
2023-01-13T01:57:39.158Z,100286.72
2023-01-13T02:00:08.694Z,100278.03
2023-01-13T02:02:46.464Z,100272.78
2023-01-13T02:05:14.475Z,100250.13
2023-01-13T02:07:45.873Z,100272.78
2023-01-13T02:10:18.456Z,100271.09
2023-01-13T02:12:48.865Z,100269.34
2023-01-13T02:15:29.965Z,100264.13
2023-01-13T02:18:33.911Z,100259.81
2023-01-13T02:21:51.700Z,100264.25
2023-01-13T02:24:55.037Z,100255.66
2023-01-13T02:27:42.424Z,100258.34
2023-01-13T02:30:53.543Z,100267.13
2023-01-13T02:33:34.461Z,100268.13
2023-01-13T02:36:11.565Z,100271.72
2023-01-13T02:38:52.242Z,100274.34
2023-01-13T02:41:52.738Z,100275.25
2023-01-13T02:44:28.580Z,100280.66
2023-01-13T02:47:22.852Z,100282.44
2023-01-13T02:49:59.588Z,100272.06
2023-01-13T02:52:42.760Z,100276.47
2023-01-13T02:55:21.070Z,100266.03
2023-01-13T02:57:51.607Z,100262.56
2023-01-13T03:00:20.688Z,100252.09
2023-01-13T03:02:49.460Z,100252.97
2023-01-13T03:05:17.598Z,100256.50
2023-01-13T03:08:31.774Z,100252.94
2023-01-13T03:11:11.224Z,100249.50
2023-01-13T03:14:11.001Z,100246.81
2023-01-13T03:16:45.180Z,100235.47
2023-01-13T03:19:44.061Z,100238.91
2023-01-13T03:22:23.728Z,100243.28
2023-01-13T03:24:59.072Z,100232.78
2023-01-13T03:27:51.749Z,100226.63
2023-01-13T03:30:36.346Z,100223.97
2023-01-13T03:33:33.329Z,100225.72
2023-01-13T03:36:09.869Z,100222.16
2023-01-13T03:38:50.051Z,100228.19
2023-01-13T03:41:29.981Z,100217.72
2023-01-13T03:44:21.429Z,100200.19
2023-01-13T03:47:36.773Z,100212.38
2023-01-13T03:50:22.558Z,100207.13
2023-01-13T03:53:06.667Z,100208.75
2023-01-13T03:55:47.415Z,100209.56
2023-01-13T03:58:23.375Z,100220.88
2023-01-13T04:01:05.358Z,100216.44
2023-01-13T04:03:49.971Z,100209.47
2023-01-13T04:06:44.733Z,100209.38
2023-01-13T04:09:22.845Z,100212.84
2023-01-13T04:12:08.835Z,100211.03
2023-01-13T04:14:37.763Z,100209.28
2023-01-13T04:17:05.320Z,100206.59
2023-01-13T04:19:33.106Z,100217.09
2023-01-13T04:22:00.595Z,100218.00
2023-01-13T04:24:28.135Z,100233.66
2023-01-13T04:26:56.513Z,100232.78
2023-01-13T04:29:23.964Z,100237.09
2023-01-13T04:31:51.349Z,100264.22
2023-01-13T04:34:18.939Z,100234.47
2023-01-13T04:36:46.450Z,100230.16
2023-01-13T04:39:13.897Z,100231.00
2023-01-13T04:41:59.656Z,100231.91
2023-01-13T04:44:27.522Z,100256.47
2023-01-13T04:46:55.099Z,100236.41
2023-01-13T04:49:22.783Z,100239.09
2023-01-13T04:51:50.542Z,100254.81
2023-01-13T04:54:17.984Z,100241.78
2023-01-13T04:56:45.614Z,100238.31
2023-01-13T04:59:14.394Z,100233.13
2023-01-13T05:01:42.072Z,100227.97
2023-01-13T05:04:09.572Z,100234.16
2023-01-13T05:06:37.164Z,100218.44
2023-01-13T05:09:04.567Z,100229.84
2023-01-13T05:11:51.168Z,100234.31
2023-01-13T05:14:37.607Z,100232.69
2023-01-13T05:17:05.173Z,100231.97
2023-01-13T05:19:35.817Z,100224.19
2023-01-13T05:22:22.457Z,100241.75
2023-01-13T05:25:08.730Z,100233.16
2023-01-13T05:27:36.628Z,100234.09
2023-01-13T05:30:05.798Z,100231.47
2023-01-13T05:32:33.308Z,100229.75
2023-01-13T05:35:00.831Z,100222.84
2023-01-13T05:37:28.291Z,100223.69
2023-01-13T05:40:14.649Z,100216.75
2023-01-13T05:43:00.612Z,100227.22
2023-01-13T05:45:30.728Z,100242.94
2023-01-13T05:47:58.522Z,100246.38
2023-01-13T05:50:25.970Z,100255.91
2023-01-13T05:52:53.422Z,100251.50
2023-01-13T05:55:20.890Z,100249.78
2023-01-13T05:57:48.331Z,100252.28
2023-01-13T06:00:16.846Z,100264.50
2023-01-13T06:02:44.315Z,100267.94
2023-01-13T06:05:11.746Z,100258.31
2023-01-13T06:07:39.333Z,100260.03
2023-01-13T06:10:07.931Z,100267.88
2023-01-13T06:12:35.414Z,100270.50
2023-01-13T06:15:03.162Z,100263.56
2023-01-13T06:17:30.798Z,100265.34
2023-01-13T06:19:58.234Z,100279.41
2023-01-13T06:22:32.327Z,100285.56
2023-01-13T06:24:59.990Z,100280.47
2023-01-13T06:27:30.321Z,100273.59
2023-01-13T06:29:57.752Z,100276.31
2023-01-13T06:32:40.222Z,100276.38
2023-01-13T06:35:14.093Z,100271.22
2023-01-13T06:37:44.990Z,100280.91
2023-01-13T06:40:14.799Z,100265.31
2023-01-13T06:43:00.950Z,100268.84
2023-01-13T06:45:31.426Z,100276.78
2023-01-13T06:48:00.676Z,100276.78
2023-01-13T06:50:28.888Z,100270.75
2023-01-13T06:52:56.416Z,100279.50
2023-01-13T06:55:24.207Z,100274.34
2023-01-13T06:57:55.142Z,100283.94
2023-01-13T07:00:25.524Z,100273.50
2023-01-13T07:02:53.986Z,100282.19
2023-01-13T07:05:22.539Z,100289.19
2023-01-13T07:07:50.095Z,100279.59
2023-01-13T07:10:22.449Z,100267.44
2023-01-13T07:13:08.534Z,100282.22
2023-01-13T07:15:36.274Z,100282.28
2023-01-13T07:18:04.033Z,100282.31
2023-01-13T07:20:31.717Z,100284.00
2023-01-13T07:22:59.252Z,100288.44
2023-01-13T07:25:26.759Z,100302.31
2023-01-13T07:27:57.353Z,100296.19
2023-01-13T07:30:30.436Z,100297.88
2023-01-13T07:32:57.983Z,100290.84
2023-01-13T07:35:25.440Z,100282.06
2023-01-13T07:37:53.009Z,100301.22
2023-01-13T07:40:20.505Z,100295.13
2023-01-13T07:43:07.013Z,100301.22
2023-01-13T07:45:34.510Z,100322.25
2023-01-13T07:48:02.064Z,100303.88
2023-01-13T07:50:29.653Z,100306.53
2023-01-13T07:53:00.182Z,100312.72
2023-01-13T07:55:27.581Z,100309.22
2023-01-13T07:57:55.090Z,100310.13
2023-01-13T08:00:23.401Z,100317.97
2023-01-13T08:02:50.867Z,100312.75
2023-01-13T08:05:18.512Z,100315.34
2023-01-13T08:07:46.077Z,100304.88
2023-01-13T08:10:13.520Z,100316.25
2023-01-13T08:12:59.915Z,100317.97
2023-01-13T08:15:27.487Z,100325.81
2023-01-13T08:17:55.056Z,100321.38
2023-01-13T08:20:22.611Z,100313.53
2023-01-13T08:22:50.107Z,100326.56
2023-01-13T08:25:17.697Z,100323.03
2023-01-13T08:27:45.143Z,100321.28
2023-01-13T08:30:12.816Z,100346.53
2023-01-13T08:32:40.263Z,100334.31
2023-01-13T08:35:08.352Z,100344.75
2023-01-13T08:37:35.881Z,100339.50
2023-01-13T08:40:04.503Z,100342.94
2023-01-13T08:42:32.826Z,100342.06
2023-01-13T08:45:00.368Z,100348.13
2023-01-13T08:47:28.829Z,100350.75
2023-01-13T08:49:56.273Z,100352.41
2023-01-13T08:52:24.173Z,100353.25
2023-01-13T08:54:51.606Z,100342.75
2023-01-13T08:57:22.053Z,100355.81
2023-01-13T08:59:49.675Z,100354.88
2023-01-13T09:02:21.497Z,100354.00
2023-01-13T09:04:49.811Z,100353.94
2023-01-13T09:07:18.384Z,100364.31
2023-01-13T09:09:46.094Z,100356.47
2023-01-13T09:12:35.120Z,100363.38
2023-01-13T09:15:06.183Z,100359.81
2023-01-13T09:17:33.850Z,100371.09
2023-01-13T09:20:01.264Z,100368.38
2023-01-13T09:22:28.747Z,100380.50
2023-01-13T09:24:56.333Z,100366.34
2023-01-13T09:27:24.303Z,100373.09
2023-01-13T09:29:51.789Z,100381.59
2023-01-13T09:32:19.402Z,100386.56
2023-01-13T09:35:02.352Z,100385.56
2023-01-13T09:37:34.685Z,100398.53
2023-01-13T09:40:18.478Z,100390.53
2023-01-13T09:43:19.637Z,100393.09
2023-01-13T09:45:59.684Z,100407.91
2023-01-13T09:48:35.088Z,100411.34
2023-01-13T09:51:30.781Z,100395.66
2023-01-13T09:54:11.554Z,100401.03
2023-01-13T09:56:39.169Z,100399.34
2023-01-13T09:59:12.214Z,100403.75
2023-01-13T10:01:59.441Z,100401.97
2023-01-13T10:04:27.763Z,100409.84
2023-01-13T10:07:05.933Z,100408.84
2023-01-13T10:09:49.186Z,100420.06
2023-01-13T10:12:43.587Z,100428.69
2023-01-13T10:15:17.964Z,100428.66
2023-01-13T10:18:18.246Z,100438.19
2023-01-13T10:21:21.296Z,100437.38
2023-01-13T10:24:07.239Z,100451.34
2023-01-13T10:27:31.725Z,100446.25
2023-01-13T10:29:59.153Z,100452.44
2023-01-13T10:32:26.705Z,100454.22
2023-01-13T10:34:57.372Z,100450.84
2023-01-13T10:37:27.950Z,100458.03
2023-01-13T10:40:00.976Z,100463.38
2023-01-13T10:42:28.503Z,100460.88
2023-01-13T10:44:59.931Z,100462.75
2023-01-13T10:47:30.996Z,100468.19
2023-01-13T10:50:03.679Z,100483.97
2023-01-13T10:52:38.084Z,100492.00
2023-01-13T10:55:26.654Z,100490.34
2023-01-13T10:57:54.526Z,100503.66
2023-01-13T11:00:33.034Z,100505.47
2023-01-13T11:03:24.265Z,100512.47
2023-01-13T11:05:56.502Z,100509.94
2023-01-13T11:08:43.945Z,100504.69
2023-01-13T11:11:38.088Z,100496.81
2023-01-13T11:14:39.455Z,100507.28
2023-01-13T11:17:25.451Z,100512.63
2023-01-13T11:20:32.403Z,100510.81
2023-01-13T11:23:14.623Z,100522.19
2023-01-13T11:25:49.067Z,100518.69
2023-01-13T11:28:38.945Z,100522.16
2023-01-13T11:31:33.514Z,100510.81
2023-01-13T11:34:21.853Z,100522.16
2023-01-13T11:36:54.203Z,100510.72
2023-01-13T11:39:30.172Z,100515.03
2023-01-13T11:42:36.756Z,100530.59
2023-01-13T11:45:34.749Z,100518.28
2023-01-13T11:48:03.006Z,100513.78
2023-01-13T11:50:51.479Z,100512.66
2023-01-13T11:53:24.491Z,100515.94
2023-01-13T11:56:33.288Z,100509.63
2023-01-13T11:59:30.758Z,100510.25
2023-01-13T12:02:19.997Z,100517.16
2023-01-13T12:05:03.600Z,100517.69
2023-01-13T12:08:23.372Z,100515.56
2023-01-13T12:11:14.352Z,100528.50
2023-01-13T12:14:13.646Z,100540.63
2023-01-13T12:16:50.664Z,100548.50
2023-01-13T12:19:29.450Z,100539.84
2023-01-13T12:22:15.649Z,100544.25
2023-01-13T12:25:04.157Z,100562.72
2023-01-13T12:27:47.450Z,100553.16
2023-01-13T12:30:39.064Z,100557.72
2023-01-13T12:33:36.547Z,100566.69
2023-01-13T12:36:25.461Z,100559.78
2023-01-13T12:38:58.876Z,100580.91
2023-01-13T12:42:04.046Z,100570.53
2023-01-13T12:44:31.663Z,100579.34
2023-01-13T12:47:00.318Z,100572.38
2023-01-13T12:49:36.329Z,100579.34
2023-01-13T12:52:17.351Z,100576.72
2023-01-13T12:54:44.755Z,100575.94
2023-01-13T12:57:24.141Z,100582.97
2023-01-13T13:00:03.753Z,100583.81
2023-01-13T13:02:43.971Z,100590.84
2023-01-13T13:05:14.414Z,100593.47
2023-01-13T13:07:48.629Z,100590.84
2023-01-13T13:10:40.375Z,100602.19
2023-01-13T13:13:39.320Z,100593.47
2023-01-13T13:16:25.485Z,100606.56
2023-01-13T13:19:20.130Z,100627.53
2023-01-13T13:22:09.968Z,100610.84
2023-01-13T13:24:43.089Z,100616.88
2023-01-13T13:27:30.104Z,100608.00
2023-01-13T13:30:33.679Z,100643.72
2023-01-13T13:33:15.318Z,100629.66
2023-01-13T13:36:13.777Z,100640.06
2023-01-13T13:39:23.525Z,100641.69
2023-01-13T13:42:23.181Z,100645.19
2023-01-13T13:45:09.953Z,100647.81
2023-01-13T13:47:39.457Z,100650.41
2023-01-13T13:50:14.430Z,100651.31
2023-01-13T13:52:54.120Z,100659.22
2023-01-13T13:55:30.076Z,100670.59
2023-01-13T13:58:01.514Z,100677.63
2023-01-13T14:00:37.925Z,100678.50
2023-01-13T14:03:34.097Z,100681.13
2023-01-13T14:06:06.117Z,100689.03
2023-01-13T14:08:38.065Z,100688.09
2023-01-13T14:11:28.491Z,100699.44
2023-01-13T14:14:13.821Z,100690.72
2023-01-13T14:16:41.682Z,100707.34
2023-01-13T14:19:36.041Z,100716.00
2023-01-13T14:22:05.540Z,100725.63
2023-01-13T14:24:34.074Z,100736.94
2023-01-13T14:27:17.552Z,100737.69
2023-01-13T14:29:45.670Z,100742.91
2023-01-13T14:32:19.956Z,100740.19
2023-01-13T14:34:48.270Z,100740.19
2023-01-13T14:37:36.606Z,100753.28
2023-01-13T14:40:05.145Z,100762.06
2023-01-13T14:42:35.395Z,100760.31
2023-01-13T14:45:03.570Z,100756.84
2023-01-13T14:47:34.076Z,100766.47
2023-01-13T14:50:16.697Z,100769.97
2023-01-13T14:52:57.195Z,100784.84
2023-01-13T14:55:38.438Z,100774.38
2023-01-13T14:58:28.595Z,100789.28
2023-01-13T15:01:36.186Z,100786.66
2023-01-13T15:04:28.156Z,100787.59
2023-01-13T15:06:57.547Z,100788.50
2023-01-13T15:09:33.049Z,100796.38
2023-01-13T15:12:17.264Z,100802.53
2023-01-13T15:14:51.560Z,100816.50
2023-01-13T15:17:19.070Z,100822.66
2023-01-13T15:19:46.530Z,100824.38
2023-01-13T15:22:13.974Z,100825.28
2023-01-13T15:24:41.887Z,100827.91
2023-01-13T15:27:22.316Z,100838.38
2023-01-13T15:29:49.808Z,100830.50
2023-01-13T15:32:21.968Z,100852.34
2023-01-13T15:34:49.617Z,100854.13
2023-01-13T15:37:17.115Z,100840.13
2023-01-13T15:39:44.587Z,100848.03
2023-01-13T15:42:31.816Z,100853.28
2023-01-13T15:45:32.453Z,100860.31
2023-01-13T15:48:00.102Z,100859.50
2023-01-13T15:50:28.003Z,100860.38
2023-01-13T15:52:55.471Z,100871.78
2023-01-13T15:55:22.935Z,100864.78
2023-01-13T15:57:50.989Z,100881.44
2023-01-13T16:00:21.827Z,100877.03
2023-01-13T16:02:50.426Z,100877.97
2023-01-13T16:05:17.962Z,100889.31
2023-01-13T16:07:45.776Z,100883.22
2023-01-13T16:10:25.923Z,100883.19
2023-01-13T16:12:55.788Z,100891.09
2023-01-13T16:15:24.877Z,100889.31
2023-01-13T16:18:03.416Z,100893.69
2023-01-13T16:20:30.911Z,100898.13
2023-01-13T16:22:58.311Z,100899.84
2023-01-13T16:25:27.819Z,100912.09
2023-01-13T16:27:55.328Z,100905.13
2023-01-13T16:30:31.080Z,100913.84
2023-01-13T16:32:58.877Z,100920.88
2023-01-13T16:35:28.388Z,100922.66
2023-01-13T16:37:58.481Z,100931.38
2023-01-13T16:40:36.428Z,100938.31
2023-01-13T16:43:06.686Z,100945.34
2023-01-13T16:45:34.323Z,100944.50
2023-01-13T16:48:01.842Z,100950.66
2023-01-13T16:50:36.991Z,100949.75
2023-01-13T16:53:05.316Z,100959.41
2023-01-13T16:55:32.885Z,100950.66
2023-01-13T16:58:00.331Z,100951.53
2023-01-13T17:00:28.028Z,100959.41
2023-01-13T17:02:55.615Z,100962.06
2023-01-13T17:05:23.040Z,100962.94
2023-01-13T17:07:50.634Z,100973.41
2023-01-13T17:10:21.965Z,100965.56
2023-01-13T17:12:49.744Z,100968.19
2023-01-13T17:15:19.312Z,100986.50
2023-01-13T17:17:48.704Z,100980.34
2023-01-13T17:20:16.367Z,100985.59
2023-01-13T17:22:47.545Z,101000.41
2023-01-13T17:25:17.404Z,100987.28
2023-01-13T17:27:44.973Z,100984.66
2023-01-13T17:30:16.169Z,100994.28
2023-01-13T17:32:43.642Z,100991.72
2023-01-13T17:35:12.857Z,101001.31
2023-01-13T17:37:40.510Z,101000.47
2023-01-13T17:40:09.208Z,101008.34
2023-01-13T17:42:37.434Z,101010.13
2023-01-13T17:45:06.129Z,101013.59
2023-01-13T17:47:33.524Z,101014.47
2023-01-13T17:50:01.005Z,101016.19
2023-01-13T17:52:28.514Z,101010.97
2023-01-13T17:54:56.047Z,101012.72
2023-01-13T17:57:23.903Z,101018.88
2023-01-13T17:59:51.308Z,101015.41
2023-01-13T18:02:18.885Z,101029.44
2023-01-13T18:04:46.435Z,101039.09
2023-01-13T18:07:13.863Z,101040.84
2023-01-13T18:09:41.329Z,101048.69
2023-01-13T18:12:08.813Z,101053.09
2023-01-13T18:14:36.246Z,101047.88
2023-01-13T18:17:03.795Z,101056.63
2023-01-13T18:19:50.240Z,101065.38
2023-01-13T18:22:36.208Z,101082.03
2023-01-13T18:25:22.977Z,101080.31
2023-01-13T18:27:50.524Z,101078.63
2023-01-13T18:30:18.111Z,101073.41
2023-01-13T18:32:45.522Z,101090.91
2023-01-13T18:35:15.403Z,101090.06
2023-01-13T18:37:43.010Z,101097.06
2023-01-13T18:40:13.399Z,101083.91
2023-01-13T18:42:56.491Z,101093.50
2023-01-13T18:45:28.129Z,101094.44
2023-01-13T18:47:57.808Z,101098.06
2023-01-13T18:50:28.353Z,101091.16
2023-01-13T18:52:56.285Z,101097.28
2023-01-13T18:55:25.225Z,101091.22
2023-01-13T18:57:53.603Z,101092.16
2023-01-13T19:00:22.538Z,101095.72
2023-01-13T19:05:35.858Z,101101.94
2023-01-13T19:08:04.777Z,101096.72
2023-01-13T19:10:32.649Z,101106.38
2023-01-13T19:13:01.584Z,101105.56
2023-01-13T19:15:30.065Z,101111.66
2023-01-13T19:17:57.619Z,101120.41
2023-01-13T19:20:25.084Z,101121.25
2023-01-13T19:22:54.375Z,101125.63
2023-01-13T19:25:22.746Z,101125.63
2023-01-13T19:27:50.208Z,101124.75
2023-01-13T19:30:18.004Z,101129.13
2023-01-13T19:32:45.457Z,101130.00
2023-01-13T19:35:17.292Z,101144.81
2023-01-13T19:37:46.973Z,101140.44
2023-01-13T19:40:14.710Z,101135.22
2023-01-13T19:43:21.457Z,101141.34
2023-01-13T19:45:51.148Z,101143.13
2023-01-13T19:48:18.672Z,101143.13
2023-01-13T19:50:46.159Z,101161.44
2023-01-13T19:53:17.594Z,101167.53
2023-01-13T19:55:48.498Z,101164.91
2023-01-13T19:58:23.089Z,101174.53
2023-01-13T20:00:54.124Z,101173.66
2023-01-13T20:03:26.827Z,101182.34
2023-01-13T20:05:55.140Z,101179.72
2023-01-13T20:08:25.793Z,101180.59
2023-01-13T20:11:13.286Z,101182.34
2023-01-13T20:13:40.793Z,101186.72
2023-01-13T20:16:08.885Z,101191.06
2023-01-13T20:18:37.320Z,101198.06
2023-01-13T20:21:07.844Z,101203.28
2023-01-13T20:23:35.729Z,101210.28
2023-01-13T20:26:10.177Z,101207.66
2023-01-13T20:28:39.456Z,101216.38
2023-01-13T20:31:13.181Z,101222.47
2023-01-13T20:33:41.630Z,101223.34
2023-01-13T20:36:27.356Z,101222.41
2023-01-13T20:38:59.500Z,101216.31
2023-01-13T20:41:46.630Z,101218.94
2023-01-13T20:44:14.848Z,101225.94
2023-01-13T20:46:46.812Z,101225.09
2023-01-13T20:49:16.530Z,101224.19
2023-01-13T20:51:44.384Z,101235.56
2023-01-13T20:54:11.812Z,101232.94
2023-01-13T20:56:40.500Z,101238.19
2023-01-13T20:59:08.691Z,101231.19
2023-01-13T21:01:37.832Z,101243.41
2023-01-13T21:04:07.133Z,101241.66
2023-01-13T21:06:35.350Z,101247.75
2023-01-13T21:09:03.100Z,101241.63
2023-01-13T21:11:49.106Z,101247.72
2023-01-13T21:14:44.483Z,101240.69
2023-01-13T21:17:33.712Z,101257.25
2023-01-13T21:20:04.789Z,101261.59
2023-01-13T21:22:32.305Z,101254.59
2023-01-13T21:24:59.982Z,101257.19
2023-01-13T21:27:27.472Z,101256.31
2023-01-13T21:29:55.018Z,101266.78
2023-01-13T21:32:22.749Z,101272.91
2023-01-13T21:34:50.268Z,101267.66
2023-01-13T21:37:18.628Z,101272.03
2023-01-13T21:39:46.324Z,101284.28
2023-01-13T21:42:33.919Z,101279.88
2023-01-13T21:45:20.636Z,101293.84
2023-01-13T21:47:48.592Z,101285.09
2023-01-13T21:50:25.512Z,101284.22
2023-01-13T21:52:53.038Z,101284.22
2023-01-13T21:55:25.407Z,101285.06
2023-01-13T21:57:55.974Z,101278.06
2023-01-13T22:00:31.000Z,101278.06
2023-01-13T22:02:59.655Z,101276.28
2023-01-13T22:05:27.101Z,101299.88
2023-01-13T22:07:54.548Z,101290.22
2023-01-13T22:10:25.794Z,101294.56
2023-01-13T22:13:22.381Z,101299.75
2023-01-13T22:15:49.981Z,101309.38
2023-01-13T22:18:20.182Z,101308.53
2023-01-13T22:20:49.118Z,101326.81
2023-01-13T22:23:17.010Z,101319.84
2023-01-13T22:25:44.444Z,101331.19
2023-01-13T22:28:13.885Z,101328.56
2023-01-13T22:30:41.453Z,101338.19
2023-01-13T22:33:09.496Z,101326.81
2023-01-13T22:35:38.420Z,101336.44
2023-01-13T22:38:05.986Z,101350.41
2023-01-13T22:40:33.408Z,101345.19
2023-01-13T22:43:00.863Z,101337.34
2023-01-13T22:45:28.333Z,101348.69
2023-01-13T22:47:55.763Z,101350.47
2023-01-13T22:50:23.214Z,101350.50
2023-01-13T22:52:50.752Z,101340.94
2023-01-13T22:55:18.159Z,101344.47
2023-01-13T22:57:48.389Z,101349.72
2023-01-13T23:00:19.302Z,101350.63
2023-01-13T23:02:47.072Z,101344.56
2023-01-13T23:05:14.642Z,101349.00
2023-01-13T23:07:42.053Z,101346.41
2023-01-13T23:10:10.258Z,101353.44
2023-01-13T23:12:37.760Z,101361.34
2023-01-13T23:15:05.894Z,101361.34
2023-01-13T23:17:33.400Z,101362.25
2023-01-13T23:20:00.805Z,101361.41
2023-01-13T23:22:28.300Z,101364.06
2023-01-13T23:24:55.797Z,101362.34
2023-01-13T23:27:23.262Z,101371.09
2023-01-13T23:29:50.780Z,101358.00
2023-01-13T23:32:18.221Z,101361.50
2023-01-13T23:34:45.716Z,101354.56
2023-01-13T23:37:13.198Z,101350.22
2023-01-13T23:39:40.698Z,101343.25
2023-01-13T23:42:08.266Z,101332.81
2023-01-13T23:44:35.771Z,101341.53
2023-01-13T23:47:03.325Z,101330.19
2023-01-13T23:49:31.227Z,101324.09
2023-01-13T23:51:58.701Z,101323.25
2023-01-13T23:54:26.124Z,101318.03
2023-01-13T23:56:57.382Z,101322.38
2023-01-13T23:59:24.977Z,101326.78
